Impacts TAF Board
For situational awareness. Not to be used for flight planning purposes.
IDs:

KBFD - Bradford Rgnl, PA, US

Issued at 1540 UTC 03 Dec 2021
Updated at 1701 UTC 03 Dec 2021
Potential Impact None Slight Moderate High
Time1653Z 03/18Z 03/19Z 03/20Z 03/21Z 03/22Z 03/23Z 04/00Z 04/01Z 04/02Z 04/03Z 04/04Z 04/05Z 04/06Z>>
Type OBS PRVL PRVL PRVL PRVL PRVL PRVL PRVL PRVL PRVL PRVL PRVL PRVL PRVL
VIS 10 >6 >6 >6 >6 >6 >6 >6 >6 >6 >6 >6 >6 >6
CIG 27 25 25 25 25 25 25 15 15 15 15 15 15 15
Cover OVC OVC OVC OVC OVC OVC OVC OVC OVC OVC OVC OVC OVC OVC
FltCat MVFR MVFR MVFR MVFR MVFR MVFR MVFR MVFR MVFR MVFR MVFR MVFR MVFR MVFR
WX -- -- -- -- -- -- -- -- -- -- -- -- -- --
WDir 300 300 300 300 300 300 300 VRB VRB VRB VRB VRB VRB VRB
WSpd 10 9 9 9 9 9 9 2 2 2 2 2 2 2
WGst 17 16 16 16 16 16 16 -- -- -- -- -- -- --
WSHgt -- -- -- -- -- -- -- -- -- -- -- -- -- --
WSDir -- -- -- -- -- -- -- -- -- -- -- -- -- --
WSSpd -- -- -- -- -- -- -- -- -- -- -- -- -- --
Raw TAF
KBFD 031540Z 0316/0412 30010KT P6SM BKN017 OVC025
  FM031800 30009G16KT P6SM SCT021 OVC025
  FM040000 VRB02KT P6SM OVC015


Raw METAR
KBFD 031653Z AUTO 30010G17KT 10SM SCT020 OVC027 02/M04 A3000 RMK AO2 SLP172 T00171039
KBFD 031553Z AUTO 29010KT 10SM OVC015 02/M04 A3000 RMK AO2 SLP172 T00171039
KBFD 031453Z AUTO 29011KT 10SM OVC017 01/M04 A2999 RMK AO2 SLP169 T00111039 50013

METAR Board
Radar Display
Forecast Discussion
For situational awareness. Not to be used for flight planning purposes.